Terminal Aerodrome Forecast
Issued by NWS

Home | Current Version | Previous Version | Text Only | Print | Product List | Glossary Off
Versions: 1 2 3 4 5 6 7 8 9 10 11 12 13 14 15 16 17 18 19

000
FTUS43 KBIS 280951 AAA
TAFMOT
TAF AMD
KMOT 280951Z 2810/2906 20012KT P6SM BKN015
     FM281100 23018G25KT P6SM BKN015
     FM281600 22025G38KT P6SM SCT030
     FM282100 24032G50KT P6SM VCSH SCT025 OVC035
     FM290000 25030G48KT P6SM OVC025=

USA.gov is the U.S. government's official web portal to all federal, state and local government web resources and services.